Time;durP1;ratioP1;P1;durP2;ratioP2;P2;SDS_P1;SDS_P2;PMS_P1;PMS_P2;Temp;Humidity;BMP_temperature;BMP_pressure;BME280_temperature;BME280_humidity;BME280_pressure;Samples;Min_cycle;Max_cycle;Signal;HPM_P1;HPM_P2
2021/12/14 00:02:57;;;;;;;53.33;24.50;;;;;;;-2.34;100.00;101463.16;6730047;26;33946;-67
2021/12/14 00:06:01;;;;;;;47.00;22.15;;;;;;;-2.16;100.00;101474.56;6729250;26;34039;-67
2021/12/14 00:09:08;;;;;;;49.33;26.48;;;;;;;-2.02;100.00;101472.28;6748909;26;34095;-66
2021/12/14 00:12:40;;;;;;;53.50;26.80;;;;;;;-1.96;100.00;101466.84;6748464;26;34035;-68
2021/12/14 00:15:42;;;;;;;50.35;26.25;;;;;;;-2.08;100.00;101469.09;6749031;26;34518;-67
2021/12/14 00:18:46;;;;;;;47.85;25.50;;;;;;;-2.12;100.00;101463.16;6749150;26;34058;-67
2021/12/14 00:21:52;;;;;;;52.30;26.87;;;;;;;-2.37;100.00;101473.66;6729071;26;33990;-67
2021/12/14 00:24:56;;;;;;;52.22;26.17;;;;;;;-2.51;100.00;101472.50;6748934;26;34152;-67
2021/12/14 00:28:05;;;;;;;48.25;22.17;;;;;;;-2.60;100.00;101472.84;6748955;26;34605;-67
2021/12/14 00:31:14;;;;;;;40.55;19.90;;;;;;;-2.65;100.00;101466.06;6748828;26;34065;-67
2021/12/14 00:34:23;;;;;;;46.20;21.67;;;;;;;-2.70;100.00;101475.78;6748866;26;34174;-68
2021/12/14 00:37:35;;;;;;;44.72;22.08;;;;;;;-2.74;100.00;101476.81;6749268;26;34712;-68
2021/12/14 00:40:43;;;;;;;42.00;21.10;;;;;;;-2.65;100.00;101475.62;6748875;26;34093;-67
2021/12/14 00:43:46;;;;;;;43.22;21.83;;;;;;;-2.60;100.00;101471.09;6749319;26;34447;-68
2021/12/14 00:46:50;;;;;;;40.70;21.20;;;;;;;-2.69;100.00;101477.50;6749275;26;34634;-68
2021/12/14 00:49:54;;;;;;;43.95;22.45;;;;;;;-2.76;100.00;101476.00;6749338;26;34854;-67
2021/12/14 00:52:57;;;;;;;40.78;20.95;;;;;;;-2.80;100.00;101489.16;6729511;26;34613;-67
2021/12/14 00:56:05;;;;;;;51.30;25.92;;;;;;;-2.79;100.00;101488.25;6748953;26;34922;-68
2021/12/14 00:59:09;;;;;;;53.72;26.83;;;;;;;-2.80;100.00;101496.94;6748828;26;34497;-67
2021/12/14 01:02:20;;;;;;;53.42;26.60;;;;;;;-2.87;100.00;101504.13;6748810;26;34056;-67
2021/12/14 01:05:31;;;;;;;49.15;26.48;;;;;;;-2.92;100.00;101502.59;6748876;26;34359;-67
2021/12/14 01:08:38;;;;;;;47.25;23.90;;;;;;;-2.93;100.00;101501.75;6729082;26;34716;-67
2021/12/14 01:11:46;;;;;;;45.47;22.35;;;;;;;-2.99;100.00;101498.50;6748696;26;33929;-67
2021/12/14 01:15:10;;;;;;;48.10;24.00;;;;;;;-3.05;100.00;101489.22;6729298;26;34456;-67
2021/12/14 01:18:29;;;;;;;53.13;22.45;;;;;;;-3.08;100.00;101482.38;6748771;26;34050;-67
2021/12/14 01:25:02;;;;;;;47.97;24.37;;;;;;;-3.09;100.00;101492.81;6748566;26;34327;-67
2021/12/14 01:28:12;;;;;;;50.33;25.55;;;;;;;-3.15;100.00;101493.84;6748965;26;34638;-68
2021/12/14 01:31:30;;;;;;;51.92;25.45;;;;;;;-3.18;100.00;101496.56;6748651;26;34333;-67
2021/12/14 01:34:36;;;;;;;52.33;27.08;;;;;;;-3.18;100.00;101490.53;6748580;26;34783;-68
2021/12/14 01:37:45;;;;;;;47.83;24.45;;;;;;;-3.02;100.00;101483.91;6748858;26;33929;-68
2021/12/14 01:40:54;;;;;;;43.07;22.07;;;;;;;-3.14;100.00;101482.59;6748421;26;34113;-68
2021/12/14 01:43:58;;;;;;;41.75;20.95;;;;;;;-3.14;100.00;101494.72;6748694;26;34071;-68
2021/12/14 01:47:08;;;;;;;37.00;20.08;;;;;;;-2.93;100.00;101488.78;6748954;26;34081;-68
2021/12/14 01:50:17;;;;;;;34.92;18.80;;;;;;;-2.89;100.00;101492.09;6748820;26;34751;-68
2021/12/14 01:53:23;;;;;;;34.92;19.80;;;;;;;-2.93;100.00;101493.12;6748385;26;34429;-67
2021/12/14 01:56:28;;;;;;;40.88;19.20;;;;;;;-2.83;100.00;101494.47;6748381;26;33961;-68
2021/12/14 01:59:38;;;;;;;34.30;18.10;;;;;;;-2.95;100.00;101493.16;6748596;26;34221;-67
2021/12/14 02:02:45;;;;;;;35.88;18.42;;;;;;;-3.05;100.00;101481.44;6748741;26;34104;-67
2021/12/14 02:05:51;;;;;;;38.53;19.48;;;;;;;-2.99;100.00;101495.91;6748442;26;34015;-67
2021/12/14 02:09:00;;;;;;;36.90;18.95;;;;;;;-2.97;100.00;101486.34;6748249;26;34200;-67
2021/12/14 02:12:12;;;;;;;36.33;17.90;;;;;;;-3.03;100.00;101487.41;6748283;26;34509;-67
2021/12/14 02:15:20;;;;;;;37.15;18.75;;;;;;;-3.04;100.00;101483.09;6748222;26;34808;-67
2021/12/14 02:18:26;;;;;;;37.55;18.62;;;;;;;-3.19;100.00;101487.09;6748263;26;34747;-67
2021/12/14 02:21:30;;;;;;;41.78;18.87;;;;;;;-3.30;100.00;101483.19;6728640;26;33897;-67
2021/12/14 02:24:35;;;;;;;40.65;21.35;;;;;;;-3.34;100.00;101485.03;6748217;26;34023;-69
2021/12/14 02:27:44;;;;;;;38.30;19.55;;;;;;;-3.41;100.00;101480.97;6748093;26;34200;-66
2021/12/14 02:30:49;;;;;;;35.20;18.10;;;;;;;-3.43;100.00;101485.34;6748043;26;34886;-66
2021/12/14 02:33:55;;;;;;;36.88;18.42;;;;;;;-3.45;100.00;101481.97;6748069;26;34312;-67
2021/12/14 02:36:58;;;;;;;35.53;18.30;;;;;;;-3.47;100.00;101491.53;6744295;26;120248;-67
2021/12/14 02:40:20;;;;;;;40.47;18.50;;;;;;;-3.54;100.00;101483.12;6749427;26;34755;-66
2021/12/14 02:43:38;;;;;;;40.70;18.08;;;;;;;-3.55;100.00;101483.19;6749401;26;33869;-67
2021/12/14 02:46:51;;;;;;;36.97;18.27;;;;;;;-3.55;100.00;101485.78;6749634;26;34768;-69
2021/12/14 02:49:55;;;;;;;36.35;17.92;;;;;;;-3.57;100.00;101487.56;6749924;26;34278;-67
2021/12/14 02:52:58;;;;;;;38.00;17.85;;;;;;;-3.61;100.00;101488.56;6749739;26;35257;-67
2021/12/14 02:56:01;;;;;;;34.08;17.08;;;;;;;-3.64;100.00;101481.75;6749603;26;34075;-67
2021/12/14 02:59:12;;;;;;;33.85;18.45;;;;;;;-3.66;100.00;101486.12;6749690;26;34022;-67
2021/12/14 03:02:20;;;;;;;36.33;18.80;;;;;;;-3.71;100.00;101488.00;6749619;26;34840;-68
2021/12/14 03:05:28;;;;;;;33.35;16.87;;;;;;;-3.76;100.00;101483.88;6749604;26;34772;-67
2021/12/14 03:08:37;;;;;;;34.50;18.15;;;;;;;-3.77;100.00;101484.75;6749213;26;34912;-67
2021/12/14 03:11:40;;;;;;;35.70;19.40;;;;;;;-3.73;100.00;101478.59;6749267;26;34126;-67
2021/12/14 03:14:51;;;;;;;34.92;18.05;;;;;;;-3.69;100.00;101485.38;6729276;26;33933;-67
2021/12/14 03:17:57;;;;;;;36.22;18.50;;;;;;;-3.71;100.00;101487.16;6749222;26;34294;-67
2021/12/14 03:21:15;;;;;;;39.72;18.33;;;;;;;-3.76;100.00;101492.50;6729767;26;34005;-68
2021/12/14 03:24:19;;;;;;;42.67;22.40;;;;;;;-3.62;100.00;101494.63;6749174;26;35184;-68
2021/12/14 03:27:22;;;;;;;45.28;23.60;;;;;;;-3.63;100.00;101492.97;6749169;26;34377;-68
2021/12/14 03:30:25;;;;;;;47.22;24.25;;;;;;;-3.65;100.00;101482.62;6749219;26;34614;-68
2021/12/14 03:33:33;;;;;;;44.30;22.90;;;;;;;-3.65;100.00;101481.78;6748983;26;34140;-68
2021/12/14 03:36:45;;;;;;;47.92;24.92;;;;;;;-3.72;100.00;101483.72;6729804;26;34453;-68
2021/12/14 03:39:52;;;;;;;54.22;27.90;;;;;;;-3.68;100.00;101487.09;6729963;26;34011;-68
2021/12/14 03:42:55;;;;;;;55.80;30.70;;;;;;;-3.73;100.00;101496.75;6729348;26;34041;-68
2021/12/14 03:45:59;;;;;;;60.60;31.92;;;;;;;-3.75;100.00;101483.84;6749310;26;33977;-68
2021/12/14 03:49:06;;;;;;;60.05;31.55;;;;;;;-3.72;100.00;101482.88;6748670;26;34177;-68
2021/12/14 03:52:11;;;;;;;61.40;32.05;;;;;;;-3.68;100.00;101487.91;6749126;26;33961;-68
2021/12/14 03:55:38;;;;;;;50.90;28.35;;;;;;;-3.70;100.00;101484.53;6749615;26;34298;-68
2021/12/14 03:58:42;;;;;;;49.67;27.30;;;;;;;-3.77;100.00;101475.25;6749066;26;34480;-68
2021/12/14 04:01:50;;;;;;;52.38;27.42;;;;;;;-3.71;100.00;101479.38;6748845;26;34799;-67
2021/12/14 04:05:03;;;;;;;54.03;28.15;;;;;;;-3.59;100.00;101482.44;6749256;26;34845;-68
2021/12/14 04:08:08;;;;;;;56.08;29.23;;;;;;;-3.67;100.00;101476.63;6749038;26;34018;-68
2021/12/14 04:11:13;;;;;;;55.75;28.00;;;;;;;-3.65;100.00;101482.62;6748913;26;34071;-68
2021/12/14 04:14:16;;;;;;;53.45;29.02;;;;;;;-3.62;100.00;101484.25;6748991;26;34149;-68
2021/12/14 04:17:22;;;;;;;49.72;27.87;;;;;;;-3.55;100.00;101494.41;6749226;26;33176;-68
2021/12/14 04:20:35;;;;;;;53.33;29.77;;;;;;;-3.37;100.00;101486.88;6748859;26;34196;-68
2021/12/14 04:23:45;;;;;;;55.83;30.33;;;;;;;-3.32;100.00;101482.38;6748946;26;34327;-68
2021/12/14 04:26:49;;;;;;;64.32;32.22;;;;;;;-3.48;100.00;101487.25;6749272;26;32844;-68
2021/12/14 04:29:53;;;;;;;59.00;32.42;;;;;;;-3.31;100.00;101484.09;6749310;26;34563;-68
2021/12/14 04:33:00;;;;;;;60.33;31.05;;;;;;;-3.36;100.00;101486.00;6748856;26;33827;-68
2021/12/14 04:36:09;;;;;;;67.87;33.40;;;;;;;-3.43;100.00;101482.75;6748724;26;34269;-68
2021/12/14 04:53:06;;;;;;;57.95;31.92;;;;;;;-3.43;100.00;101493.12;6748668;26;34430;-68
2021/12/14 04:56:21;;;;;;;65.53;31.77;;;;;;;-3.59;100.00;101492.81;6748804;26;34685;-69
2021/12/14 04:59:28;;;;;;;57.53;30.58;;;;;;;-3.67;100.00;101502.56;6748881;26;34753;-67
2021/12/14 05:02:34;;;;;;;58.57;30.37;;;;;;;-3.70;100.00;101502.69;6748712;26;34718;-67
2021/12/14 05:05:46;;;;;;;55.30;30.05;;;;;;;-3.85;100.00;101500.59;6748644;26;34061;-67
2021/12/14 05:12:28;;;;;;;58.30;31.17;;;;;;;-3.77;100.00;101502.91;6748799;26;34118;-67
2021/12/14 05:15:35;;;;;;;57.45;29.63;;;;;;;-3.80;100.00;101505.63;6748571;26;34722;-67
2021/12/14 05:18:56;;;;;;;59.00;30.52;;;;;;;-3.93;100.00;101509.50;6748539;26;34004;-68
2021/12/14 05:22:05;;;;;;;58.03;29.23;;;;;;;-3.92;100.00;101511.22;6748889;26;34051;-68
2021/12/14 05:25:16;;;;;;;55.07;28.60;;;;;;;-3.99;100.00;101510.53;6711445;26;33994;-68
2021/12/14 05:28:20;;;;;;;55.72;29.60;;;;;;;-4.04;100.00;101508.09;6748638;26;34606;-68
2021/12/14 05:31:23;;;;;;;60.05;30.00;;;;;;;-4.10;100.00;101516.06;6748833;26;34580;-69
2021/12/14 05:34:29;;;;;;;55.10;29.12;;;;;;;-4.15;100.00;101517.09;6748888;26;34027;-68
2021/12/14 05:37:41;;;;;;;56.55;27.55;;;;;;;-4.17;100.00;101518.91;6748643;26;34555;-68
2021/12/14 05:43:53;;;;;;;54.63;28.48;;;;;;;-4.23;100.00;101525.09;6748786;26;34652;-68
2021/12/14 05:47:01;;;;;;;56.55;28.35;;;;;;;-4.33;100.00;101528.87;6748770;26;34668;-67
2021/12/14 05:50:04;;;;;;;55.50;28.52;;;;;;;-4.42;100.00;101532.59;6750835;26;34715;-68
2021/12/14 05:53:09;;;;;;;54.90;27.87;;;;;;;-4.38;100.00;101538.50;6748475;26;33974;-69
2021/12/14 05:56:20;;;;;;;50.30;26.08;;;;;;;-4.57;100.00;101538.19;6748450;26;34727;-70
2021/12/14 05:59:29;;;;;;;51.55;25.88;;;;;;;-4.63;100.00;101540.97;6728553;26;34162;-68
2021/12/14 06:02:37;;;;;;;49.58;26.10;;;;;;;-4.71;100.00;101545.50;6748931;26;34201;-68
2021/12/14 06:05:40;;;;;;;48.22;25.35;;;;;;;-4.72;100.00;101541.22;6728519;26;34027;-69
2021/12/14 06:08:44;;;;;;;47.10;24.58;;;;;;;-4.70;100.00;101539.44;6748259;26;34694;-69
2021/12/14 06:11:53;;;;;;;44.90;24.48;;;;;;;-4.80;100.00;101542.31;6749057;26;34242;-68
2021/12/14 06:14:59;;;;;;;46.47;23.75;;;;;;;-4.85;100.00;101539.88;6749712;26;33931;-69
2021/12/14 06:18:02;;;;;;;49.30;24.95;;;;;;;-4.83;100.00;101541.50;6748963;26;34039;-69
2021/12/14 06:21:09;;;;;;;47.78;24.15;;;;;;;-4.86;100.00;101539.03;6749111;26;33326;-69
2021/12/14 06:24:13;;;;;;;50.35;25.08;;;;;;;-4.93;100.00;101542.66;6749376;26;34628;-69
2021/12/14 06:27:21;;;;;;;61.33;27.27;;;;;;;-4.85;100.00;101555.41;6749298;26;34670;-70
2021/12/14 06:30:29;;;;;;;61.80;28.62;;;;;;;-4.78;100.00;101553.47;6751331;26;33986;-70
2021/12/14 06:33:34;;;;;;;77.47;32.83;;;;;;;-4.82;100.00;101553.56;6749268;26;33857;-69
2021/12/14 06:37:41;;;;;;;68.72;29.85;;;;;;;-4.68;100.00;101552.31;6748652;26;34616;-69
2021/12/14 06:40:46;;;;;;;64.12;29.23;;;;;;;-4.69;100.00;101551.47;6726774;26;34587;-70
2021/12/14 06:43:54;;;;;;;73.10;29.40;;;;;;;-4.58;100.00;101551.19;6749167;26;34880;-70
2021/12/14 06:46:58;;;;;;;77.87;29.40;;;;;;;-4.53;100.00;101550.16;6749090;26;34784;-70
2021/12/14 06:50:05;;;;;;;87.55;30.35;;;;;;;-4.35;100.00;101556.53;6748917;26;34265;-69
2021/12/14 06:53:13;;;;;;;81.85;30.83;;;;;;;-4.45;100.00;101560.28;6748798;26;33570;-69
2021/12/14 06:56:22;;;;;;;69.43;27.13;;;;;;;-4.32;100.00;101556.47;6748845;26;33418;-69
2021/12/14 06:59:29;;;;;;;76.97;27.27;;;;;;;-4.25;100.00;101565.75;6748481;26;32371;-70
2021/12/14 07:02:32;;;;;;;75.47;25.60;;;;;;;-4.06;100.00;101556.53;6748768;26;33971;-70
2021/12/14 07:05:38;;;;;;;73.95;27.35;;;;;;;-4.01;100.00;101570.19;6748254;26;34859;-70
2021/12/14 07:08:41;;;;;;;79.55;28.98;;;;;;;-3.97;100.00;101558.84;6748667;26;34129;-70
2021/12/14 07:11:48;;;;;;;55.55;24.35;;;;;;;-3.87;100.00;101568.94;6749262;26;34592;-70
2021/12/14 07:14:52;;;;;;;55.22;21.62;;;;;;;-3.71;100.00;101567.53;6748710;26;34057;-70
2021/12/14 07:18:04;;;;;;;46.65;20.12;;;;;;;-3.73;100.00;101562.44;6748852;26;34121;-70
2021/12/14 07:21:07;;;;;;;41.70;19.52;;;;;;;-3.68;100.00;101559.69;6748910;26;34079;-70
2021/12/14 07:24:32;;;;;;;46.40;19.42;;;;;;;-3.68;100.00;101560.50;6748587;26;34623;-71
2021/12/14 07:27:39;;;;;;;44.22;19.77;;;;;;;-3.58;100.00;101571.44;6748333;26;34739;-70
2021/12/14 07:30:43;;;;;;;49.78;19.40;;;;;;;-3.48;100.00;101580.62;6748779;26;35024;-70
2021/12/14 07:33:59;;;;;;;45.47;20.17;;;;;;;-3.47;100.00;101579.72;6748721;26;34076;-70
2021/12/14 07:37:02;;;;;;;46.60;20.20;;;;;;;-3.37;100.00;101581.12;6727290;26;32655;-70
2021/12/14 07:40:06;;;;;;;43.53;19.30;;;;;;;-3.36;100.00;101579.37;6748861;26;34438;-70
2021/12/14 07:43:26;;;;;;;48.05;20.02;;;;;;;-3.48;100.00;101585.81;6748915;26;35040;-70
2021/12/14 07:46:32;;;;;;;44.58;18.42;;;;;;;-3.40;100.00;101586.44;6748529;26;34866;-70
2021/12/14 07:49:47;;;;;;;45.60;18.40;;;;;;;-3.30;100.00;101587.81;6748647;26;34573;-70
2021/12/14 07:52:50;;;;;;;55.53;19.75;;;;;;;-3.39;100.00;101577.75;6748811;26;34449;-70
2021/12/14 07:55:52;;;;;;;93.40;21.52;;;;;;;-3.36;100.00;101588.03;6748659;26;34741;-70
2021/12/14 07:58:57;;;;;;;63.72;20.67;;;;;;;-3.37;100.00;101586.31;6748660;26;34661;-71
2021/12/14 08:02:22;;;;;;;56.30;19.83;;;;;;;-3.23;100.00;101583.25;6748543;26;34071;-71
2021/12/14 08:05:29;;;;;;;53.72;21.17;;;;;;;-3.30;100.00;101580.03;6748907;26;33441;-70
2021/12/14 08:08:53;;;;;;;50.70;21.10;;;;;;;-3.33;100.00;101581.88;6748907;26;34677;-70
2021/12/14 08:11:56;;;;;;;55.08;21.52;;;;;;;-2.95;100.00;101580.59;6748840;26;34397;-70
2021/12/14 08:15:11;;;;;;;56.63;22.02;;;;;;;-2.84;100.00;101581.06;6748823;26;34318;-70
2021/12/14 08:18:18;;;;;;;54.90;21.87;;;;;;;-2.58;100.00;101586.19;6748866;26;34835;-70
2021/12/14 08:21:24;;;;;;;51.60;21.08;;;;;;;-2.64;100.00;101584.66;6748386;26;34697;-70
2021/12/14 08:24:26;;;;;;;48.72;20.08;;;;;;;-2.68;100.00;101588.28;6748696;26;34333;-69
2021/12/14 08:27:30;;;;;;;52.78;21.25;;;;;;;-2.33;100.00;101583.56;6749062;26;34399;-70
2021/12/14 08:30:36;;;;;;;55.17;20.98;;;;;;;-2.37;100.00;101579.37;6748737;26;33925;-70
2021/12/14 08:33:38;;;;;;;52.00;20.50;;;;;;;-2.22;100.00;101577.03;6748499;26;34478;-69
2021/12/14 08:36:50;;;;;;;47.53;21.10;;;;;;;-1.85;100.00;101576.50;6748371;26;34397;-69
2021/12/14 08:39:58;;;;;;;59.50;21.52;;;;;;;-1.81;100.00;101588.47;6748712;26;33999;-69
2021/12/14 08:43:14;;;;;;;50.58;19.95;;;;;;;-1.73;100.00;101587.31;6748729;26;34022;-69
2021/12/14 08:46:30;;;;;;;56.83;21.27;;;;;;;-1.65;100.00;101583.53;6728885;26;34638;-69
2021/12/14 08:49:34;;;;;;;51.40;21.75;;;;;;;-1.60;100.00;101593.75;6748684;26;34493;-69
2021/12/14 08:52:37;;;;;;;74.75;24.58;;;;;;;-1.71;100.00;101582.91;6749120;26;34245;-67
2021/12/14 08:55:44;;;;;;;56.58;23.40;;;;;;;-1.80;100.00;101591.91;6748599;26;33957;-68
2021/12/14 08:58:47;;;;;;;56.28;21.45;;;;;;;-1.79;100.00;101594.44;6748920;26;34650;-66
2021/12/14 09:01:52;;;;;;;56.42;21.73;;;;;;;-1.69;100.00;101584.53;6748767;26;33964;-66
2021/12/14 09:05:01;;;;;;;53.63;21.17;;;;;;;-1.62;100.00;101590.34;6748221;26;34015;-69
2021/12/14 09:08:05;;;;;;;55.43;21.83;;;;;;;-1.37;100.00;101586.69;6748434;26;34079;-70
2021/12/14 09:11:10;;;;;;;52.03;21.77;;;;;;;-1.32;100.00;101582.16;6748605;26;34136;-70
2021/12/14 09:14:14;;;;;;;56.05;23.17;;;;;;;-1.22;100.00;101568.75;6748566;26;34431;-71
2021/12/14 09:17:22;;;;;;;56.15;22.98;;;;;;;-1.34;100.00;101570.09;6748510;26;34074;-70
2021/12/14 09:20:30;;;;;;;63.97;24.40;;;;;;;-1.07;100.00;101566.34;6748593;26;34656;-67
2021/12/14 09:23:39;;;;;;;59.70;24.70;;;;;;;-0.94;100.00;101572.72;6748636;26;33943;-67
2021/12/14 09:26:48;;;;;;;59.53;23.55;;;;;;;-1.12;100.00;101570.91;6748457;26;33922;-67
2021/12/14 09:29:52;;;;;;;56.30;24.25;;;;;;;-1.03;100.00;101574.88;6748632;26;34418;-68
2021/12/14 09:32:55;;;;;;;56.25;24.50;;;;;;;-0.98;100.00;101573.78;6748630;26;33972;-67
2021/12/14 09:36:00;;;;;;;57.13;23.40;;;;;;;-0.79;100.00;101573.84;6748254;26;34084;-67
2021/12/14 09:39:10;;;;;;;48.55;21.12;;;;;;;-0.87;100.00;101570.69;6728832;26;34397;-67
2021/12/14 09:42:19;;;;;;;45.38;20.83;;;;;;;-1.19;100.00;101564.25;6749169;26;33656;-67
2021/12/14 09:45:27;;;;;;;48.35;22.15;;;;;;;-1.39;100.00;101565.06;6748743;26;34005;-66
2021/12/14 09:48:40;;;;;;;41.33;19.85;;;;;;;-1.35;100.00;101556.22;6748062;26;34745;-68
2021/12/14 09:51:48;;;;;;;43.87;19.95;;;;;;;-1.44;100.00;101561.81;6748489;26;34862;-68
2021/12/14 09:54:53;;;;;;;46.00;21.45;;;;;;;-1.42;100.00;101560.00;6748256;26;34485;-66
2021/12/14 09:58:01;;;;;;;46.47;21.20;;;;;;;-1.44;100.00;101556.59;6728460;26;33934;-66
2021/12/14 10:01:24;;;;;;;40.42;20.62;;;;;;;-1.45;100.00;101547.09;6748305;26;34041;-67
2021/12/14 10:04:37;;;;;;;45.85;20.60;;;;;;;-1.56;100.00;101541.50;6748479;26;34596;-67
2021/12/14 10:07:40;;;;;;;44.90;21.77;;;;;;;-1.57;100.00;101541.56;6748484;26;34108;-66
2021/12/14 10:11:00;;;;;;;46.53;22.40;;;;;;;-1.47;100.00;101540.28;6748244;26;34501;-68
2021/12/14 10:14:05;;;;;;;48.17;21.67;;;;;;;-1.39;100.00;101539.06;6747972;26;34614;-66
2021/12/14 10:17:11;;;;;;;46.05;21.58;;;;;;;-1.28;100.00;101542.97;6748022;26;34453;-66
2021/12/14 10:20:19;;;;;;;45.47;21.48;;;;;;;-1.08;100.00;101542.97;6748248;26;33981;-66
2021/12/14 10:23:24;;;;;;;50.30;21.45;;;;;;;-1.05;100.00;101530.66;6728184;26;34237;-66
2021/12/14 10:26:29;;;;;;;45.50;22.13;;;;;;;-0.97;100.00;101536.38;6748052;26;33966;-66
2021/12/14 10:29:33;;;;;;;44.53;21.77;;;;;;;-1.00;100.00;101528.72;6748189;26;34725;-67
2021/12/14 10:32:36;;;;;;;48.78;22.52;;;;;;;-1.00;100.00;101530.47;6747796;26;34248;-67
2021/12/14 10:35:47;;;;;;;44.72;21.42;;;;;;;-0.89;100.00;101525.66;6747919;26;34256;-67
2021/12/14 10:39:06;;;;;;;47.97;22.65;;;;;;;-0.92;100.00;101520.56;6747804;26;34741;-67
2021/12/14 10:45:35;;;;;;;45.50;22.37;;;;;;;-0.78;100.00;101526.03;6747933;26;34677;-67
2021/12/14 10:48:42;;;;;;;54.05;23.23;;;;;;;-0.71;100.00;101527.44;6747874;26;34421;-66
2021/12/14 10:52:00;;;;;;;47.72;23.33;;;;;;;-0.74;100.00;101530.19;6749374;26;34055;-67
2021/12/14 10:55:09;;;;;;;48.42;22.37;;;;;;;-0.65;100.00;101521.09;6749220;26;34200;-64
2021/12/14 10:58:16;;;;;;;46.92;22.10;;;;;;;-0.69;100.00;101517.78;6753096;26;34140;-64
2021/12/14 11:01:26;;;;;;;50.92;22.50;;;;;;;-0.54;100.00;101517.12;6749548;26;34704;-66
2021/12/14 11:04:52;;;;;;;47.75;22.67;;;;;;;-0.42;100.00;101510.47;6749317;26;34195;-66
2021/12/14 11:07:56;;;;;;;46.47;22.23;;;;;;;-0.25;100.00;101514.94;6748891;26;34561;-65
2021/12/14 11:11:01;;;;;;;47.95;23.73;;;;;;;-0.26;100.00;101518.44;6748520;26;34802;-67
2021/12/14 11:14:10;;;;;;;45.20;22.20;;;;;;;-0.27;100.00;101520.19;6749227;26;34375;-67
2021/12/14 11:20:53;;;;;;;49.17;23.23;;;;;;;-0.11;100.00;101508.16;6749273;26;34662;-67
2021/12/14 11:23:56;;;;;;;48.33;22.23;;;;;;;-0.15;100.00;101514.44;6749195;26;34682;-67
2021/12/14 11:26:59;;;;;;;51.75;22.10;;;;;;;-0.04;100.00;101504.31;6748846;26;34826;-67
2021/12/14 11:30:22;;;;;;;46.25;22.55;;;;;;;-0.11;100.00;101497.72;6749144;26;33951;-67
2021/12/14 11:33:29;;;;;;;48.05;22.52;;;;;;;0.17;100.00;101506.81;6749084;26;34625;-67
2021/12/14 11:36:34;;;;;;;44.00;20.52;;;;;;;0.32;100.00;101508.69;6748988;26;34028;-68
2021/12/14 11:39:48;;;;;;;45.55;21.87;;;;;;;0.20;100.00;101506.66;6749140;26;34048;-68
2021/12/14 11:42:53;;;;;;;49.17;21.87;;;;;;;0.41;100.00;101492.56;6748719;26;34295;-67
2021/12/14 11:45:58;;;;;;;39.65;18.70;;;;;;;0.49;100.00;101500.00;6729566;26;33969;-66
2021/12/14 11:49:04;;;;;;;43.38;19.25;;;;;;;0.67;100.00;101499.97;6749021;26;34659;-66
2021/12/14 11:52:07;;;;;;;41.63;20.08;;;;;;;0.86;100.00;101503.31;6748730;26;34172;-67
2021/12/14 11:55:37;;;;;;;41.45;18.27;;;;;;;0.82;100.00;101495.72;6748949;26;34585;-67
2021/12/14 11:58:51;;;;;;;38.08;19.08;;;;;;;0.77;100.00;101490.75;6748949;26;34288;-68
2021/12/14 12:01:54;;;;;;;42.45;19.33;;;;;;;0.78;100.00;101488.94;6748885;26;34706;-69
2021/12/14 12:04:58;;;;;;;40.70;20.00;;;;;;;1.09;100.00;101491.69;6728731;26;33969;-67
2021/12/14 12:11:38;;;;;;;39.67;18.70;;;;;;;2.01;97.74;101491.00;6748838;26;34361;-67
2021/12/14 12:14:40;;;;;;;39.63;18.60;;;;;;;2.36;94.96;101483.75;6748886;26;33597;-67
2021/12/14 12:18:06;;;;;;;39.28;18.90;;;;;;;2.40;95.51;101485.25;6748088;26;34785;-68
2021/12/14 12:21:08;;;;;;;35.75;17.80;;;;;;;2.27;95.75;101492.16;6748775;26;34684;-68
2021/12/14 12:24:40;;;;;;;41.15;18.60;;;;;;;2.25;95.26;101493.16;6748752;26;34043;-68
2021/12/14 12:28:14;;;;;;;38.25;17.15;;;;;;;2.41;93.69;101489.56;6745784;26;34026;-69
2021/12/14 12:31:20;;;;;;;36.97;16.98;;;;;;;2.64;92.13;101485.59;6725480;26;34202;-68
2021/12/14 12:34:34;;;;;;;33.03;17.37;;;;;;;2.24;92.45;101487.06;6748347;26;34434;-68
2021/12/14 12:37:41;;;;;;;39.13;17.67;;;;;;;2.30;93.92;101478.88;6748510;26;34058;-68
2021/12/14 12:40:52;;;;;;;40.17;19.17;;;;;;;2.46;93.11;101469.22;6748963;26;34640;-68
2021/12/14 12:44:23;;;;;;;;;;;;;;;2.36;93.52;101475.91;6749099;26;34632;-68
2021/12/14 12:47:26;;;;;;;46.67;20.40;;;;;;;2.25;95.22;101466.97;6729936;26;34260;-67
2021/12/14 12:50:33;;;;;;;49.60;21.92;;;;;;;2.24;95.56;101487.06;6748869;26;35311;-68
2021/12/14 12:53:36;;;;;;;51.17;22.45;;;;;;;2.21;96.17;101486.41;6748676;26;33956;-67
2021/12/14 12:56:42;;;;;;;47.55;21.42;;;;;;;1.79;96.97;101489.66;6748489;26;34057;-67
2021/12/14 13:00:09;;;;;;;47.13;21.92;;;;;;;1.68;97.76;101490.25;6748454;26;34622;-66
2021/12/14 13:03:21;;;;;;;48.65;21.27;;;;;;;1.80;97.45;101480.87;6748495;26;34662;-67
2021/12/14 13:06:24;;;;;;;46.55;20.77;;;;;;;1.70;97.75;101472.69;6748427;26;33997;-67
2021/12/14 13:09:27;;;;;;;48.05;22.08;;;;;;;1.79;97.17;101458.28;6748370;26;34463;-66
2021/12/14 13:12:41;;;;;;;41.85;20.65;;;;;;;1.85;96.62;101458.75;6748202;26;33977;-67
2021/12/14 13:15:49;;;;;;;39.15;18.87;;;;;;;1.84;97.25;101467.53;6728162;26;34870;-66
2021/12/14 13:19:00;;;;;;;41.65;20.35;;;;;;;1.82;97.49;101464.16;6748226;26;34058;-67
2021/12/14 13:22:07;;;;;;;39.40;18.90;;;;;;;1.82;97.38;101472.03;6749007;26;33963;-66
2021/12/14 13:25:09;;;;;;;37.72;18.98;;;;;;;1.82;97.11;101466.78;6749044;26;34755;-67
2021/12/14 13:28:14;;;;;;;36.33;17.48;;;;;;;1.84;97.00;101466.72;6748496;26;34775;-66
2021/12/14 13:31:39;;;;;;;37.08;18.35;;;;;;;1.79;96.43;101461.75;6748355;26;33898;-66
2021/12/14 13:34:58;;;;;;;36.50;17.85;;;;;;;1.81;96.35;101469.47;6748012;26;34928;-66
2021/12/14 13:38:06;;;;;;;39.08;17.95;;;;;;;1.77;96.57;101475.81;6748202;26;34069;-66
2021/12/14 13:41:25;;;;;;;35.42;16.58;;;;;;;1.74;96.15;101479.47;6748475;26;33937;-66
2021/12/14 13:44:31;;;;;;;40.72;19.02;;;;;;;1.68;95.85;101483.25;6748093;26;34802;-66
2021/12/14 13:47:34;;;;;;;39.30;18.02;;;;;;;1.63;96.20;101472.19;6748327;26;34087;-65
2021/12/14 13:50:42;;;;;;;45.20;18.45;;;;;;;1.64;95.98;101478.28;6729053;26;34054;-65
2021/12/14 13:53:47;;;;;;;44.58;18.95;;;;;;;1.61;96.76;101465.34;6748298;26;34661;-66
2021/12/14 13:56:51;;;;;;;39.88;18.83;;;;;;;1.66;96.52;101472.00;6747952;26;35300;-66
2021/12/14 13:59:53;;;;;;;40.12;19.65;;;;;;;1.66;96.96;101476.41;6748222;26;34931;-66
2021/12/14 14:02:57;;;;;;;41.95;19.10;;;;;;;1.73;98.37;101477.75;6728480;26;34367;-66
2021/12/14 14:06:05;;;;;;;39.30;19.45;;;;;;;1.63;98.96;101476.56;6748022;26;34177;-67
2021/12/14 14:09:23;;;;;;;44.60;20.15;;;;;;;1.47;99.73;101473.94;6748006;26;33916;-66
2021/12/14 14:12:27;;;;;;;46.80;19.98;;;;;;;1.41;100.00;101474.28;6748333;26;34690;-66
2021/12/14 14:15:33;;;;;;;49.97;20.55;;;;;;;1.42;100.00;101480.34;6748007;26;34689;-66
2021/12/14 14:18:43;;;;;;;47.70;19.87;;;;;;;1.18;100.00;101474.66;6747830;26;34610;-65
2021/12/14 14:21:58;;;;;;;48.30;21.65;;;;;;;1.06;100.00;101468.34;6748069;26;34124;-66
2021/12/14 14:25:04;;;;;;;49.58;20.17;;;;;;;1.07;100.00;101477.84;6747903;26;34125;-66
2021/12/14 14:28:34;;;;;;;;;;;;;;;;;;;;;
2021/12/14 14:32:22;;;;;;;46.15;20.62;;;;;;;0.99;100.00;101482.62;6747848;26;34873;-66
2021/12/14 14:36:05;;;;;;;44.95;19.80;;;;;;;0.77;100.00;101475.06;6749198;26;33964;-67
2021/12/14 14:39:16;;;;;;;47.60;20.40;;;;;;;0.59;100.00;101478.59;6605739;27;34415;-66
2021/12/14 14:42:30;;;;;;;44.90;19.87;;;;;;;0.47;100.00;101475.78;6606060;27;34157;-66
2021/12/14 14:45:37;;;;;;;45.95;20.48;;;;;;;0.30;100.00;101485.25;6605623;27;33772;-66
2021/12/14 14:48:39;;;;;;;43.40;20.00;;;;;;;0.19;100.00;101491.94;6606258;27;34058;-66
2021/12/14 14:51:54;;;;;;;42.72;19.35;;;;;;;0.09;100.00;101495.91;6606841;27;33949;-67